• Join FlightAware (Why Join?)
  • Login
  • US Flag 
05:46PM EDT


 

Airport Tracker/Info


-or-


 

Live Flight TrackerFlight Track Log ✈ N470BC ✈ 18-Aug-2013 ✈ KGAI - KPSM

Flight Track Log - Related Links

Times and Time Zones

All times are in EDT time to prevent confusion due to time zone crossing. See the N470BC flight status page for this flight to view local times or setup timezone preferences in your user account.

Time Position Orientation Groundspeed Altitude Reporting Facility
EDT Latitude Longitude Course Direction KTS MPH feet Rate Location/Type
06:51PM 39.1500 -77.1333 21° North 103 119 1,500  Level Potomac TRACON
06:52PM 39.1833 -77.1167 21° North 112 129 2,300 780 Climbing Potomac TRACON
06:53PM 39.2167 -77.1333 339° North 120 138 3,000 660 Climbing Potomac TRACON
06:54PM 39.2500 -77.1333 360° North 131 151 3,600 720 Climbing Potomac TRACON
06:55PM 39.2833 -77.1500 339° North 125 144 4,500 720 Climbing Potomac TRACON
06:56PM 39.3167 -77.1500 360° North 130 150 5,100 600 Climbing Potomac TRACON
06:57PM 39.3500 -77.1167 38° Northeast 136 157 5,800 600 Climbing Potomac TRACON
06:58PM 39.3833 -77.1000 21° North 131 151 6,400 600 Climbing Potomac TRACON
06:59PM 39.4000 -77.0667 57° Northeast 131 151 7,000 300 Climbing Potomac TRACON
07:00PM 39.4333 -77.0333 38° Northeast 156 180 7,000  Level Potomac TRACON
07:01PM 39.4667 -77.0000 38° Northeast 161 185 7,000  Level Potomac TRACON
07:02PM 39.5167 -76.9500 38° Northeast 163 188 7,000  Level Potomac TRACON
07:03PM 39.5500 -76.9167 38° Northeast 166 191 7,000  Level Potomac TRACON
07:04PM 39.5833 -76.8833 38° Northeast 161 185 7,000  Level Potomac TRACON
07:05PM 39.6167 -76.8500 38° Northeast 168 193 7,000  Level Potomac TRACON
07:07PM 39.6709 -76.7893 41° Northeast  Level FlightAware Approximate
07:14PM 39.9126 -76.5167 41° Northeast  Level FlightAware Approximate
07:15PM 39.9470 -76.4775 41° Northeast  Level FlightAware Approximate
07:16PM 39.9814 -76.4383 41° Northeast  Level FlightAware Approximate
07:17PM 40.0158 -76.3990 41° Northeast  Level FlightAware Approximate
07:18PM 40.0501 -76.3596 41° Northeast  Level FlightAware Approximate
07:19PM 40.0845 -76.3203 41° Northeast  Level FlightAware Approximate
07:20PM 40.1193 -76.2819 22° Northeast  Level FlightAware Approximate
07:21PM 40.1617 -76.2596 22° Northeast  Level FlightAware Approximate
07:22PM 40.2040 -76.2372 22° Northeast  Level FlightAware Approximate
07:23PM 40.2464 -76.2148 22° Northeast  Level FlightAware Approximate
07:24PM 40.2888 -76.1924 22° Northeast  Level FlightAware Approximate
07:25PM 40.3003 -76.1348 75° East  Level FlightAware Approximate
07:26PM 40.3117 -76.0771 75° East  Level FlightAware Approximate
07:27PM 40.3231 -76.0195 75° East  Level FlightAware Approximate
07:28PM 40.3345 -75.9618 75° East  Level FlightAware Approximate
07:29PM 40.3620 -75.9143 53° Northeast  Level Estimated
07:30PM 40.3881 -75.8656 55° Northeast  Level FlightAware Approximate
07:31PM 40.4142 -75.8167 55° Northeast  Level FlightAware Approximate
07:32PM 40.4403 -75.7679 55° Northeast  Level FlightAware Approximate
07:33PM 40.4664 -75.7190 55° Northeast  Level FlightAware Approximate
07:34PM 40.4924 -75.6701 55° Northeast  Level FlightAware Approximate
07:35PM 40.5185 -75.6211 55° Northeast  Level FlightAware Approximate
07:36PM 40.5444 -75.5721 55° Northeast  Level FlightAware Approximate
07:37PM 40.5704 -75.5230 55° Northeast  Level FlightAware Approximate
07:38PM 40.5964 -75.4740 55° Northeast  Level FlightAware Approximate
07:39PM 40.6223 -75.4248 55° Northeast  Level FlightAware Approximate
07:39PM 40.6689 -75.3431 55° Northeast 173 199 7,500  Level New York Center
07:40PM 40.6482 -75.3757 55° Northeast  Level FlightAware Approximate
07:40PM 40.7000 -75.2903 52° Northeast 168 193 7,500  Level New York Center
07:41PM 40.6741 -75.3265 55° Northeast  Level FlightAware Approximate
07:41PM 40.7247 -75.2425 56° Northeast 168 193 7,500  Level New York Center
07:42PM 40.7000 -75.2772 55° Northeast  Level FlightAware Approximate
07:42PM 40.7517 -75.1978 51° Northeast 168 193 7,500  Level New York Center
07:43PM 40.7258 -75.2280 55° Northeast  Level FlightAware Approximate
07:43PM 40.7806 -75.1475 53° Northeast 168 193 7,500  Level New York Center
07:44PM 40.7517 -75.1786 55° Northeast  Level FlightAware Approximate
07:44PM 40.8139 -75.0922 51° Northeast 168 193 7,500  Level New York Center
07:45PM 40.8428 -75.0419 53° Northeast 168 193 7,500  Level New York Center
07:46PM 40.8694 -74.9942 54° Northeast 173 199 7,500  Level New York Center
07:47PM 40.8983 -74.9439 53° Northeast 173 199 7,500  Level New York Center
07:48PM 40.9294 -74.8853 55° Northeast 173 199 7,500  Level New York Center
07:49PM 40.9564 -74.8347 55° Northeast 178 205 7,500  Level New York Center
07:50PM 40.9850 -74.7842 53° Northeast 173 199 7,500  Level New York Center
07:51PM 41.0161 -74.7311 52° Northeast 173 199 7,500  Level New York Center
07:52PM 41.0425 -74.6858 52° Northeast 173 199 7,500  Level New York Center
07:53PM 41.0756 -74.6300 52° Northeast 173 199 7,500  Level New York Center
07:54PM 41.1000 -74.5817 56° Northeast 173 199 7,500  Level New York Center
07:55PM 41.1331 -74.5258 52° Northeast 173 199 7,500  Level New York Center
07:56PM 41.1575 -74.4803 55° Northeast 173 199 7,500  Level New York Center
07:57PM 41.1906 -74.4214 53° Northeast 168 193 7,500  Level New York Center
07:58PM 41.2150 -74.3758 54° Northeast 168 193 7,500  Level New York Center
07:59PM 41.2478 -74.3197 52° Northeast 168 193 7,500  Level New York Center
08:00PM 41.2719 -74.2742 55° Northeast 168 193 7,500  Level New York Center
08:01PM 41.3050 -74.2178 52° Northeast 168 193 7,500  Level New York Center
08:02PM 41.3314 -74.1639 57° Northeast 168 193 7,500  Level New York Center
08:03PM 41.3581 -74.1128 55° Northeast 168 193 7,500  Level New York Center
08:04PM 41.3886 -74.0617 51° Northeast 168 193 7,500  Level New York Center
08:05PM 41.4169 -74.0106 54° Northeast 173 199 7,500  Level New York Center
08:06PM 41.4456 -73.9567 55° Northeast 173 199 7,500  Level New York Center
08:07PM 41.4719 -73.9053 56° Northeast 173 199 7,500  Level New York Center
08:08PM 41.5003 -73.8567 52° Northeast 173 199 7,500  Level New York Center
08:09PM 41.5308 -73.8000 54° Northeast 173 199 7,500  Level New York Center
08:10PM 41.5572 -73.7514 54° Northeast 173 199 7,500  Level New York Center
08:11PM 41.5856 -73.7000 54° Northeast 173 199 7,500  Level New York Center
08:12PM 41.6203 -73.6406 52° Northeast 173 199 7,500  Level New York Center
08:12PM 41.6442 -73.5958 54° Northeast 175 201 7,500  Level Boston Center
08:13PM 41.6697 -73.5461 55° Northeast 175 201 7,500  Level Boston Center
08:14PM 41.7017 -73.4883 53° Northeast 175 201 7,500  Level Boston Center
08:15PM 41.7269 -73.4414 54° Northeast 175 201 7,500  Level Boston Center
08:16PM 41.7544 -73.3889 55° Northeast 176 203 7,500  Level Boston Center
08:17PM 41.7883 -73.3311 52° Northeast 175 201 7,500  Level Boston Center
08:18PM 41.8136 -73.2842 54° Northeast 176 203 7,500  Level Boston Center
08:18PM 41.8136 -73.2842 54° Northeast 175 201 7,500  Level Boston Center
08:19PM 41.8453 -73.2258 54° Northeast 175 201 7,500  Level Boston Center
08:20PM 41.8708 -73.1789 54° Northeast 175 201 7,500  Level Boston Center
08:22PM 41.9022 -73.1178 55° Northeast 175 201 7,500  Level Boston Center
08:23PM 41.9319 -73.0597 55° Northeast 177 204 7,500  Level Boston Center
08:23PM 41.9572 -73.0125 54° Northeast 175 201 7,500  Level Boston Center
08:24PM 41.9844 -72.9597 55° Northeast 175 201 7,500  Level Boston Center
08:25PM 42.0139 -72.9067 53° Northeast 175 201 7,500  Level Boston Center
08:26PM 42.0433 -72.8539 53° Northeast 175 201 7,500  Level Boston Center
08:27PM 42.0706 -72.7981 57° Northeast 175 201 7,500  Level Boston Center
08:28PM 42.1000 -72.7394 56° Northeast 178 205 7,500  Level Boston Center
08:29PM 42.1292 -72.6892 52° Northeast 175 201 7,500  Level Boston Center
08:30PM 42.1564 -72.6361 55° Northeast 175 201 7,500  Level Boston Center
08:31PM 42.1814 -72.5803 59° Northeast 175 201 7,500  Level Boston Center
08:32PM 42.2128 -72.5242 53° Northeast 183 211 7,500  Level Boston Center
08:33PM 42.2294 -72.4933 54° Northeast 187 215 7,500  Level Boston Center
08:34PM 42.2567 -72.4428 54° Northeast 187 215 7,500  Level Boston Center
08:35PM 42.2858 -72.3839 56° Northeast 182 209 7,500  Level Boston Center
08:36PM 42.3128 -72.3333 54° Northeast 182 209 7,500  Level Boston Center
08:37PM 42.3461 -72.2717 54° Northeast 177 204 7,500  Level Boston Center
08:38PM 42.3711 -72.2181 58° Northeast 177 204 7,500  Level Boston Center
08:39PM 42.4000 -72.1617 55° Northeast 177 204 7,500  Level Boston Center
08:40PM 42.4292 -72.1053 55° Northeast 177 204 7,500  Level Boston Center
08:41PM 42.4581 -72.0489 55° Northeast 177 204 7,500  Level Boston Center
08:42PM 42.4869 -71.9953 54° Northeast 177 204 7,500  Level Boston Center
08:43PM 42.5161 -71.9386 55° Northeast 177 204 7,500  Level Boston Center
08:44PM 42.5469 -71.8822 53° Northeast 177 204 7,500  Level Boston Center
08:45PM 42.5758 -71.8225 57° Northeast 177 204 7,500  Level Boston Center
08:46PM 42.6047 -71.7658 55° Northeast 177 204 7,500  Level Boston Center
08:47PM 42.6336 -71.7092 55° Northeast 177 204 7,500  Level Boston Center
08:48PM 42.6622 -71.6522 56° Northeast 177 204 7,500  Level Boston Center
08:49PM 42.6911 -71.5983 54° Northeast 177 204 7,500  Level Boston Center
08:50PM 42.7200 -71.5386 57° Northeast 177 204 7,500 -300 Level Boston Center
08:51PM 42.7506 -71.4789 55° Northeast 182 209 6,900 -660 Descending Boston Center
08:52PM 42.7833 -71.4161 55° Northeast 188 216 6,300 -660 Descending Boston Center
08:53PM 42.8142 -71.3561 55° Northeast 188 216 5,700 -660 Descending Boston Center
08:54PM 42.8408 -71.3019 56° Northeast 188 216 5,100 -660 Descending Boston Center
08:55PM 42.8756 -71.2361 54° Northeast 188 216 4,500 -600 Descending Boston Center
08:56PM 42.9000 -71.1833 58° Northeast 196 226 4,100 -600 Descending KA90
08:57PM 42.9333 -71.1167 56° Northeast 197 227 3,500 -600 Descending KA90
08:58PM 42.9667 -71.0667 48° Northeast 198 228 2,900 -600 Descending KA90
08:59PM 42.9833 -71.0000 71° East 198 228 2,300 -600 Descending KA90
09:00PM 43.0167 -70.9333 56° Northeast 198 228 1,700 -480 Descending KA90
09:01PM 43.0333 -70.8667 71° East 184 212 1,400 -240 Descending KA90
09:02PM 43.0333 -70.8167 90° East 153 176 1,300 -480 Descending KA90
09:03PM 43.0500 -70.8000 36° Northeast 108 124 500 -840 Descending KA90
09:06PM 43.0667 -70.7917 270° West  Level FlightAware Approximate